Buffalo, WY

4:15 AM MDT on March 27, 2015 (GMT -0600)
Esponda Ranch | | Change Station
CLOSE
Current Station
Personal Weather Station
Location: Buffalo, WY
Elevation: 4665 ft
Nearby Weather Stations
Active Advisory: Fire Weather Watch

Elev 4665 ft 44.32 °N, 106.67 °W | Updated 6 minutes ago

Clear
Clear
40.0 °F
Feels Like 37 °F
N
4.0
Wind Variable Wind from SW
Gusts 4.0 mph

Today
High -- | Low -- °F
--% Chance of Precip.
Yesterday
High -- | Low -- °F
Precip. -- in
6:57 AM 7:27 PM
Waxing Crescent, 51% visible
Pressure 30.08 in
Visibility 10.0 miles
Clouds Clear
Windchill 37 °F
Dew Point 34 °F
Humidity 80%
Rainfall 0.00 in
Snow Depth Not available.
UV 0 out of 12
Pollen 6.70 out of 12
Air Quality Not available.
Flu Activity Not available.
METAR KBYG 270953Z AUTO 24005KT 10SM CLR 06/01 A3012 RMK AO2 SLP184 T00560011 $

More Conditions Fewer Conditions

Pressure 30.08 in
Visibility 10.0 miles
Clouds Clear
Windchill 37 °F
Dew Point 34 °F
Humidity 80%
Rainfall 0.00 in
Snow Depth Not available.
UV 0 out of 12
Pollen 6.70 out of 12
Air Quality Not available.
Flu Activity Not available.
METAR KBYG 270953Z AUTO 24005KT 10SM CLR 06/01 A3012 RMK AO2 SLP184 T00560011 $

More Conditions Fewer Conditions

10-Day Weather Forecast

Almanac

Astronomy

Mar. 27, 2015 Rise Set
Actual Time
Civil Twilight
Nautical Twilight
Astronomical Twilight
Moon
Length of Visible Light
Length of Day
Tomorrow will be .
, % of the Moon is Illuminated

Today's Extremes

State Highs State Lows

Community

WunderPhotos

Upload Photos

1,808,705 photos uploaded!

WunderBlogs® & News

Nearby

Air Quality

  Air Quality AQ Index Pollutant
Not available.

Snow Depth

Station Depth Elevation

Earthquake Activity

City Distance Mag. Time & Date
Minimum magnitude displayed is 2.5.

Coastal Water Temperatures

Place Temperature

Stations

Nearby Weather Stations

Station Location Temp. Windchill Dew Point Humidity Wind Precip. Elev Updated Type
                   
Fire Weather Watch
Statement as of 2:35 AM MDT on March 27, 2015

... Fire Weather Watch in effect from Saturday afternoon through
Saturday evening for wind and low relative humidity for fire
weather zones 280... 281 and 283...

The National Weather Service in Riverton has issued a Fire
Weather Watch for wind and low relative humidity... which is in
effect from Saturday afternoon through Saturday evening.

* Affected area... fire weather zones 280... 281 and 283.

* Winds... west 15 to 25 mph with gusts up to 40 to 45 mph.

* Relative humidity... as low as 12 percent.

* Impacts... conditions may be favorable for intense fires with rapid
rates of spread.

Precautionary/preparedness actions...

A Fire Weather Watch means that critical fire weather conditions
are forecast to occur. Listen for later forecasts and possible
red flag warnings.